Wampsville, NY (13163)

2:32 AM EST on November 23, 2014 (GMT -0500)
ABC Dairy Farms | Change Station
CLOSE
Current Station
Personal Weather Station
Location: Canastota, NY
Elevation: 469 ft
Nearby Weather Stations

Elev 469 ft 43.08 °N, 75.81 °W | Updated 2 minutes ago

Rain
Rain
44.0 °F
Feels Like 41 °F
N
5.0
Wind Variable Wind from North
Gusts 13.0 mph

Today
High -- | Low -- °F
--% Chance of Precip.
Yesterday
High -- | Low -- °F
Precip. -- in
7:05 AM 4:32 PM
New Moon, 1% visible
Pressure 30.06 in
Visibility 4.0 miles
Clouds Overcast 2000 ft
Windchill 41 °F
Dew Point 42 °F
Humidity 92%
Rainfall 0.07 in
Snow Depth Not available.
UV 0 out of 12
Pollen .10 out of 12
Air Quality Not available.
Flu Activity Not available.
METAR KRME 230653Z AUTO 08007KT 4SM RA BR OVC020 03/03 A3005 RMK AO2 SLP180 P0007 T00330028

More Conditions Fewer Conditions

Pressure 30.06 in
Visibility 4.0 miles
Clouds Overcast 2000 ft
Windchill 41 °F
Dew Point 42 °F
Humidity 92%
Rainfall 0.07 in
Snow Depth Not available.
UV 0 out of 12
Pollen .10 out of 12
Air Quality Not available.
Flu Activity Not available.
METAR KRME 230653Z AUTO 08007KT 4SM RA BR OVC020 03/03 A3005 RMK AO2 SLP180 P0007 T00330028

More Conditions Fewer Conditions

10-Day Weather Forecast

Almanac

Astronomy

Nov. 23, 2014 Rise Set
Actual Time
Civil Twilight
Nautical Twilight
Astronomical Twilight
Moon
Length of Visible Light
Length of Day
Tomorrow will be .
, % of the Moon is Illuminated

Today's Extremes

State Highs State Lows

Community

WunderPhotos

Upload Photos

1,773,024 photos uploaded!

WunderBlogs® & News

Nearby

Air Quality

  Air Quality AQ Index Pollutant
Not available.

Snow Depth

Station Depth Elevation

Earthquake Activity

City Distance Mag. Time & Date
Minimum magnitude displayed is 2.5.

Coastal Water Temperatures

Place Temperature

Nearby Weather Stations